This is the latest recevied weather packets stored in our database for station/object SQ9MHX-13. If no packets are shown the sender has not sent any weather packets the latest 10 day(s).
| Time | Temp. | Humidity | Pressure | Rain* | Wind** | Luminosity | Snow |
|---|---|---|---|---|---|---|---|
| 1777646146 | 18.89° C | 37% | 967 hPa | - | 0 m/s | - | - |
| 1777645847 | 17.78° C | 37% | 966.1 hPa | - | 0 m/s | - | - |
| 1777645548 | 20° C | 35% | 964.8 hPa | - | 0 m/s | - | - |
| 1777645249 | 18.89° C | 37% | 966.3 hPa | - | 0 m/s | - | - |
| 1777644950 | 18.89° C | 36% | 965.7 hPa | - | 0 m/s | - | - |
| 1777644053 | 20° C | 36% | 965.4 hPa | - | 0 m/s | - | - |
| 1777643754 | 20° C | 35% | 964.5 hPa | - | 0 m/s | - | - |
| 1777643455 | 21.11° C | 34% | 963.8 hPa | - | 0 m/s | - | - |
| 1777643156 | 20° C | 35% | 966.1 hPa | - | 0 m/s | - | - |
| 1777642558 | 18.89° C | 36% | 966.9 hPa | - | 0 m/s | - | - |
| 1777642259 | 18.89° C | 38% | 967 hPa | - | 0 m/s | - | - |
| 1777641960 | 18.89° C | 36% | 967 hPa | - | 0 m/s | - | - |
| 1777641661 | 18.89° C | 37% | 966.7 hPa | - | 0 m/s | - | - |
| 1777641362 | 20° C | 37% | 966.5 hPa | - | 0 m/s | - | - |
| 1777640764 | 18.89° C | 35% | 966 hPa | - | 0 m/s | - | - |
| 1777640465 | 20° C | 35% | 964.9 hPa | - | 0 m/s | - | - |
| 1777640166 | 20° C | 35% | 965.8 hPa | - | 0 m/s | - | - |
| 1777638671 | 18.89° C | 36% | 967.4 hPa | - | 0 m/s | - | - |
| 1777638372 | 18.89° C | 35% | 967.5 hPa | - | 0 m/s | - | - |
| 1777638073 | 20° C | 34% | 966.7 hPa | - | 0 m/s | - | - |
| 1777637774 | 18.89° C | 34% | 967 hPa | - | 0 m/s | - | - |
| 1777637475 | 18.89° C | 36% | 966.1 hPa | - | 0 m/s | - | - |
| 1777637176 | 21.11° C | 32% | 964.1 hPa | - | 0 m/s | - | - |
| 1777636578 | 21.11° C | 32% | 965.2 hPa | - | 0 m/s | - | - |
| 1777636279 | 18.89° C | 35% | 966.3 hPa | - | 0 m/s | - | - |
* Rain since midnight (hover to see other rain measurements)
** Current wind speed in m/s (hover to see current wind gust speed)